sensor_id;sensor_type;location;lat;lon;timestamp;pressure;altitude;pressure_sealevel;temperature;humidity
66164;BME280;52962;51.088;3.096;2022-07-23T00:01:33;101611.44;;;16.78;100.00
66164;BME280;52962;51.088;3.096;2022-07-23T00:04:01;101608.75;;;16.75;100.00
66164;BME280;52962;51.088;3.096;2022-07-23T00:06:29;101607.84;;;16.71;100.00
66164;BME280;52962;51.088;3.096;2022-07-23T00:08:58;101606.91;;;16.63;100.00
66164;BME280;52962;51.088;3.096;2022-07-23T00:11:26;101605.13;;;16.63;100.00
66164;BME280;52962;51.088;3.096;2022-07-23T00:13:54;101605.13;;;16.65;100.00
66164;BME280;52962;51.088;3.096;2022-07-23T00:16:24;101600.66;;;16.64;100.00
66164;BME280;52962;51.088;3.096;2022-07-23T00:18:52;101600.66;;;16.64;100.00
66164;BME280;52962;51.088;3.096;2022-07-23T00:21:20;101596.22;;;16.58;100.00
66164;BME280;52962;51.088;3.096;2022-07-23T00:23:48;101596.22;;;16.60;100.00
66164;BME280;52962;51.088;3.096;2022-07-23T00:26:17;101594.47;;;16.63;100.00
66164;BME280;52962;51.088;3.096;2022-07-23T00:28:45;101594.47;;;16.63;100.00
66164;BME280;52962;51.088;3.096;2022-07-23T00:31:13;101597.09;;;16.59;100.00
66164;BME280;52962;51.088;3.096;2022-07-23T00:33:42;101584.66;;;16.55;100.00
66164;BME280;52962;51.088;3.096;2022-07-23T00:36:09;101597.06;;;16.53;100.00
66164;BME280;52962;51.088;3.096;2022-07-23T00:38:37;101597.06;;;16.53;100.00
66164;BME280;52962;51.088;3.096;2022-07-23T00:41:05;101591.75;;;16.53;100.00
66164;BME280;52962;51.088;3.096;2022-07-23T00:43:34;101587.28;;;16.50;100.00
66164;BME280;52962;51.088;3.096;2022-07-23T00:46:02;101583.72;;;16.47;100.00
66164;BME280;52962;51.088;3.096;2022-07-23T00:48:30;101582.75;;;16.39;100.00
66164;BME280;52962;51.088;3.096;2022-07-23T00:50:58;101581.84;;;16.35;100.00
66164;BME280;52962;51.088;3.096;2022-07-23T00:53:26;101589.78;;;16.30;100.00
66164;BME280;52962;51.088;3.096;2022-07-23T00:55:55;101585.34;;;16.28;100.00
66164;BME280;52962;51.088;3.096;2022-07-23T00:58:23;101587.13;;;16.30;100.00
66164;BME280;52962;51.088;3.096;2022-07-23T01:00:52;101586.22;;;16.27;100.00
66164;BME280;52962;51.088;3.096;2022-07-23T01:03:20;101596.81;;;16.25;100.00
66164;BME280;52962;51.088;3.096;2022-07-23T01:05:49;101587.97;;;16.26;100.00
66164;BME280;52962;51.088;3.096;2022-07-23T01:08:16;101586.16;;;16.22;100.00
66164;BME280;52962;51.088;3.096;2022-07-23T01:10:44;101590.59;;;16.23;100.00
66164;BME280;52962;51.088;3.096;2022-07-23T01:13:13;101589.72;;;16.23;100.00
66164;BME280;52962;51.088;3.096;2022-07-23T01:15:41;101599.44;;;16.19;100.00
66164;BME280;52962;51.088;3.096;2022-07-23T01:18:10;101597.50;;;16.03;100.00
66164;BME280;52962;51.088;3.096;2022-07-23T01:20:39;101602.66;;;15.88;100.00
66164;BME280;52962;51.088;3.096;2022-07-23T01:23:08;101610.50;;;15.79;100.00
66164;BME280;52962;51.088;3.096;2022-07-23T01:25:36;101610.44;;;15.73;100.00
66164;BME280;52962;51.088;3.096;2022-07-23T01:28:03;101616.50;;;15.62;100.00
66164;BME280;52962;51.088;3.096;2022-07-23T01:30:31;101610.38;;;15.66;100.00
66164;BME280;52962;51.088;3.096;2022-07-23T01:32:59;101613.03;;;15.66;100.00
66164;BME280;52962;51.088;3.096;2022-07-23T01:35:27;101605.09;;;15.69;100.00
66164;BME280;52962;51.088;3.096;2022-07-23T01:37:55;101606.03;;;15.75;100.00
66164;BME280;52962;51.088;3.096;2022-07-23T01:40:24;101599.03;;;15.81;100.00
66164;BME280;52962;51.088;3.096;2022-07-23T01:42:53;101591.06;;;15.81;100.00
66164;BME280;52962;51.088;3.096;2022-07-23T01:45:21;101591.06;;;15.83;100.00
66164;BME280;52962;51.088;3.096;2022-07-23T01:47:49;101587.56;;;15.85;100.00
66164;BME280;52962;51.088;3.096;2022-07-23T01:50:18;101597.34;;;15.88;100.00
66164;BME280;52962;51.088;3.096;2022-07-23T01:52:45;101592.91;;;15.87;100.00
66164;BME280;52962;51.088;3.096;2022-07-23T01:55:13;101590.28;;;15.90;100.00
66164;BME280;52962;51.088;3.096;2022-07-23T01:57:46;101593.00;;;15.96;100.00
66164;BME280;52962;51.088;3.096;2022-07-23T02:00:14;101585.03;;;15.97;100.00
66164;BME280;52962;51.088;3.096;2022-07-23T02:02:42;101585.88;;;15.92;100.00
66164;BME280;52962;51.088;3.096;2022-07-23T02:05:10;101585.84;;;15.90;100.00
66164;BME280;52962;51.088;3.096;2022-07-23T02:07:38;101583.19;;;15.89;100.00
66164;BME280;52962;51.088;3.096;2022-07-23T02:10:07;101584.06;;;15.88;100.00
66164;BME280;52962;51.088;3.096;2022-07-23T02:12:35;101584.03;;;15.85;100.00
66164;BME280;52962;51.088;3.096;2022-07-23T02:15:05;101581.31;;;15.79;100.00
66164;BME280;52962;51.088;3.096;2022-07-23T02:17:32;101587.47;;;15.78;100.00
66164;BME280;52962;51.088;3.096;2022-07-23T02:20:00;101584.81;;;15.76;100.00
66164;BME280;52962;51.088;3.096;2022-07-23T02:22:28;101584.81;;;15.76;100.00
66164;BME280;52962;51.088;3.096;2022-07-23T02:24:56;101585.69;;;15.75;100.00
66164;BME280;52962;51.088;3.096;2022-07-23T02:27:24;101576.84;;;15.78;100.00
66164;BME280;52962;51.088;3.096;2022-07-23T02:29:52;101572.41;;;15.77;100.00
66164;BME280;52962;51.088;3.096;2022-07-23T02:32:21;101588.38;;;15.78;100.00
66164;BME280;52962;51.088;3.096;2022-07-23T02:34:49;101592.75;;;15.75;100.00
66164;BME280;52962;51.088;3.096;2022-07-23T02:37:17;101593.59;;;15.69;100.00
66164;BME280;52962;51.088;3.096;2022-07-23T02:39:45;101600.56;;;15.61;100.00
66164;BME280;52962;51.088;3.096;2022-07-23T02:42:14;101597.03;;;15.62;100.00
66164;BME280;52962;51.088;3.096;2022-07-23T02:44:42;101597.94;;;15.59;100.00
66164;BME280;52962;51.088;3.096;2022-07-23T02:47:10;101611.19;;;15.59;100.00
66164;BME280;52962;51.088;3.096;2022-07-23T02:49:39;101610.25;;;15.56;100.00
66164;BME280;52962;51.088;3.096;2022-07-23T02:52:07;101620.91;;;15.57;100.00
66164;BME280;52962;51.088;3.096;2022-07-23T02:54:36;101615.59;;;15.57;100.00
66164;BME280;52962;51.088;3.096;2022-07-23T02:57:04;101619.97;;;15.55;100.00
66164;BME280;52962;51.088;3.096;2022-07-23T02:59:32;101626.16;;;15.54;100.00
66164;BME280;52962;51.088;3.096;2022-07-23T03:02:00;101606.66;;;15.52;100.00
66164;BME280;52962;51.088;3.096;2022-07-23T03:04:28;101607.50;;;15.50;100.00
66164;BME280;52962;51.088;3.096;2022-07-23T03:06:57;101617.22;;;15.49;100.00
66164;BME280;52962;51.088;3.096;2022-07-23T03:09:25;101618.97;;;15.47;100.00
66164;BME280;52962;51.088;3.096;2022-07-23T03:11:53;101619.84;;;15.45;100.00
66164;BME280;52962;51.088;3.096;2022-07-23T03:14:21;101626.72;;;15.30;100.00
66164;BME280;52962;51.088;3.096;2022-07-23T03:16:49;101626.69;;;15.27;100.00
66164;BME280;52962;51.088;3.096;2022-07-23T03:19:17;101628.50;;;15.31;100.00
66164;BME280;52962;51.088;3.096;2022-07-23T03:21:45;101622.38;;;15.37;100.00
66164;BME280;52962;51.088;3.096;2022-07-23T03:24:14;101626.84;;;15.40;100.00
66164;BME280;52962;51.088;3.096;2022-07-23T03:26:44;101630.38;;;15.40;100.00
66164;BME280;52962;51.088;3.096;2022-07-23T03:29:12;101635.72;;;15.42;100.00
66164;BME280;52962;51.088;3.096;2022-07-23T03:31:40;101634.81;;;15.41;100.00
66164;BME280;52962;51.088;3.096;2022-07-23T03:34:08;101641.84;;;15.36;100.00
66164;BME280;52962;51.088;3.096;2022-07-23T03:36:36;101635.63;;;15.34;100.00
66164;BME280;52962;51.088;3.096;2022-07-23T03:39:04;101638.22;;;15.29;100.00
66164;BME280;52962;51.088;3.096;2022-07-23T03:41:39;101637.28;;;15.26;100.00
66164;BME280;52962;51.088;3.096;2022-07-23T03:44:07;101631.94;;;15.24;100.00
66164;BME280;52962;51.088;3.096;2022-07-23T03:46:35;101639.88;;;15.23;100.00
66164;BME280;52962;51.088;3.096;2022-07-23T03:49:03;101633.66;;;15.21;100.00
66164;BME280;52962;51.088;3.096;2022-07-23T03:51:31;101642.50;;;15.21;100.00
66164;BME280;52962;51.088;3.096;2022-07-23T03:54:00;101640.78;;;15.25;100.00
66164;BME280;52962;51.088;3.096;2022-07-23T03:56:28;101641.72;;;15.27;100.00
66164;BME280;52962;51.088;3.096;2022-07-23T03:58:57;101639.97;;;15.29;100.00
66164;BME280;52962;51.088;3.096;2022-07-23T04:01:26;101644.41;;;15.30;100.00
66164;BME280;52962;51.088;3.096;2022-07-23T04:03:54;101641.75;;;15.30;100.00
66164;BME280;52962;51.088;3.096;2022-07-23T04:06:22;101635.56;;;15.31;100.00
66164;BME280;52962;51.088;3.096;2022-07-23T04:08:50;101645.28;;;15.30;100.00
66164;BME280;52962;51.088;3.096;2022-07-23T04:11:17;101643.47;;;15.26;100.00
66164;BME280;52962;51.088;3.096;2022-07-23T04:13:45;101639.88;;;15.23;100.00
66164;BME280;52962;51.088;3.096;2022-07-23T04:16:15;101640.78;;;15.25;100.00
66164;BME280;52962;51.088;3.096;2022-07-23T04:18:43;101641.66;;;15.24;100.00
66164;BME280;52962;51.088;3.096;2022-07-23T04:21:11;101639.00;;;15.24;100.00
66164;BME280;52962;51.088;3.096;2022-07-23T04:23:39;101633.72;;;15.25;100.00
66164;BME280;52962;51.088;3.096;2022-07-23T04:26:07;101629.31;;;15.26;100.00
66164;BME280;52962;51.088;3.096;2022-07-23T04:28:40;101626.69;;;15.27;100.00
66164;BME280;52962;51.088;3.096;2022-07-23T04:31:08;101632.00;;;15.29;100.00
66164;BME280;52962;51.088;3.096;2022-07-23T04:33:37;101630.25;;;15.29;100.00
66164;BME280;52962;51.088;3.096;2022-07-23T04:36:06;101641.78;;;15.33;100.00
66164;BME280;52962;51.088;3.096;2022-07-23T04:38:34;101635.63;;;15.34;100.00
66164;BME280;52962;51.088;3.096;2022-07-23T04:41:02;101635.63;;;15.34;100.00
66164;BME280;52962;51.088;3.096;2022-07-23T04:43:29;101629.47;;;15.36;100.00
66164;BME280;52962;51.088;3.096;2022-07-23T04:45:57;101633.06;;;15.42;100.00
66164;BME280;52962;51.088;3.096;2022-07-23T04:48:25;101630.38;;;15.38;100.00
66164;BME280;52962;51.088;3.096;2022-07-23T04:50:54;101630.38;;;15.38;100.00
66164;BME280;52962;51.088;3.096;2022-07-23T04:53:22;101626.88;;;15.41;100.00
66164;BME280;52962;51.088;3.096;2022-07-23T04:55:50;101629.56;;;15.44;100.00
66164;BME280;52962;51.088;3.096;2022-07-23T04:58:18;101631.34;;;15.45;100.00
66164;BME280;52962;51.088;3.096;2022-07-23T05:00:46;101627.78;;;15.43;100.00
66164;BME280;52962;51.088;3.096;2022-07-23T05:03:14;101634.88;;;15.44;100.00
66164;BME280;52962;51.088;3.096;2022-07-23T05:05:42;101629.59;;;15.47;100.00
66164;BME280;52962;51.088;3.096;2022-07-23T05:08:11;101626.97;;;15.49;100.00
66164;BME280;52962;51.088;3.096;2022-07-23T05:10:39;101631.41;;;15.51;100.00
66164;BME280;52962;51.088;3.096;2022-07-23T05:13:07;101625.31;;;15.57;100.00
66164;BME280;52962;51.088;3.096;2022-07-23T05:15:35;101635.97;;;15.61;100.00
66164;BME280;52962;51.088;3.096;2022-07-23T05:18:03;101635.13;;;15.65;100.00
66164;BME280;52962;51.088;3.096;2022-07-23T05:20:31;101625.53;;;15.77;100.00
66164;BME280;52962;51.088;3.096;2022-07-23T05:22:59;101629.19;;;15.86;100.00
66164;BME280;52962;51.088;3.096;2022-07-23T05:25:28;101631.97;;;15.97;100.00
66164;BME280;52962;51.088;3.096;2022-07-23T05:27:56;101642.66;;;16.03;100.00
66164;BME280;52962;51.088;3.096;2022-07-23T05:30:24;101646.28;;;16.10;100.00
66164;BME280;52962;51.088;3.096;2022-07-23T05:32:52;101650.72;;;16.11;100.00
66164;BME280;52962;51.088;3.096;2022-07-23T05:35:20;101654.31;;;16.16;100.00
66164;BME280;52962;51.088;3.096;2022-07-23T05:37:48;101656.09;;;16.18;100.00
66164;BME280;52962;51.088;3.096;2022-07-23T05:40:19;101659.69;;;16.22;100.00
66164;BME280;52962;51.088;3.096;2022-07-23T05:42:48;101655.28;;;16.25;100.00
66164;BME280;52962;51.088;3.096;2022-07-23T05:45:16;101657.94;;;16.25;100.00
66164;BME280;52962;51.088;3.096;2022-07-23T05:47:46;101662.38;;;16.26;100.00
66164;BME280;52962;51.088;3.096;2022-07-23T05:50:15;101658.00;;;16.30;100.00
66164;BME280;52962;51.088;3.096;2022-07-23T05:52:43;101665.16;;;16.37;100.00
66164;BME280;52962;51.088;3.096;2022-07-23T05:55:11;101664.31;;;16.43;100.00
66164;BME280;52962;51.088;3.096;2022-07-23T05:57:40;101661.72;;;16.49;100.00
66164;BME280;52962;51.088;3.096;2022-07-23T06:00:09;101669.78;;;16.56;100.00
66164;BME280;52962;51.088;3.096;2022-07-23T06:02:38;101653.91;;;16.65;100.00
66164;BME280;52962;51.088;3.096;2022-07-23T06:05:07;101653.97;;;16.73;100.00
66164;BME280;52962;51.088;3.096;2022-07-23T06:07:36;101654.91;;;16.80;100.00
66164;BME280;52962;51.088;3.096;2022-07-23T06:10:05;101656.72;;;16.87;100.00
66164;BME280;52962;51.088;3.096;2022-07-23T06:12:33;101649.69;;;16.95;100.00
66164;BME280;52962;51.088;3.096;2022-07-23T06:15:01;101655.09;;;17.04;100.00
66164;BME280;52962;51.088;3.096;2022-07-23T06:17:30;101653.38;;;17.14;100.00
66164;BME280;52962;51.088;3.096;2022-07-23T06:19:58;101660.53;;;17.25;100.00
66164;BME280;52962;51.088;3.096;2022-07-23T06:22:26;101655.31;;;17.41;100.00
66164;BME280;52962;51.088;3.096;2022-07-23T06:24:54;101670.53;;;17.69;100.00
66164;BME280;52962;51.088;3.096;2022-07-23T06:27:22;101660.88;;;17.97;100.00
66164;BME280;52962;51.088;3.096;2022-07-23T06:29:52;101655.63;;;18.27;100.00
66164;BME280;52962;51.088;3.096;2022-07-23T06:32:20;101667.22;;;18.54;100.00
66164;BME280;52962;51.088;3.096;2022-07-23T06:34:50;101662.78;;;18.76;100.00
66164;BME280;52962;51.088;3.096;2022-07-23T06:37:18;101664.53;;;18.87;100.00
66164;BME280;52962;51.088;3.096;2022-07-23T06:39:45;101661.88;;;18.86;100.00
66164;BME280;52962;51.088;3.096;2022-07-23T06:42:13;101661.88;;;18.84;100.00
66164;BME280;52962;51.088;3.096;2022-07-23T06:44:41;101668.09;;;18.85;100.00
66164;BME280;52962;51.088;3.096;2022-07-23T06:47:09;101663.66;;;18.88;100.00
66164;BME280;52962;51.088;3.096;2022-07-23T06:49:37;101662.75;;;18.88;100.00
66164;BME280;52962;51.088;3.096;2022-07-23T06:52:08;101656.53;;;18.90;100.00
66164;BME280;52962;51.088;3.096;2022-07-23T06:54:36;101665.44;;;18.92;100.00
66164;BME280;52962;51.088;3.096;2022-07-23T06:57:04;101664.53;;;18.90;100.00
66164;BME280;52962;51.088;3.096;2022-07-23T06:59:32;101668.09;;;18.99;100.00
66164;BME280;52962;51.088;3.096;2022-07-23T07:02:02;101664.53;;;19.03;100.00
66164;BME280;52962;51.088;3.096;2022-07-23T07:04:31;101661.84;;;19.06;100.00
66164;BME280;52962;51.088;3.096;2022-07-23T07:06:58;101669.88;;;19.04;100.00
66164;BME280;52962;51.088;3.096;2022-07-23T07:09:29;101667.19;;;19.09;100.00
66164;BME280;52962;51.088;3.096;2022-07-23T07:11:57;101667.19;;;19.16;100.00
66164;BME280;52962;51.088;3.096;2022-07-23T07:14:25;101665.38;;;19.23;100.00
66164;BME280;52962;51.088;3.096;2022-07-23T07:16:53;101661.81;;;19.33;100.00
66164;BME280;52962;51.088;3.096;2022-07-23T07:19:21;101668.91;;;19.40;100.00
66164;BME280;52962;51.088;3.096;2022-07-23T07:21:49;101669.78;;;19.42;100.00
66164;BME280;52962;51.088;3.096;2022-07-23T07:24:17;101668.00;;;19.46;100.00
66164;BME280;52962;51.088;3.096;2022-07-23T07:26:46;101665.31;;;19.49;100.00
66164;BME280;52962;51.088;3.096;2022-07-23T07:29:14;101676.03;;;19.53;100.00
66164;BME280;52962;51.088;3.096;2022-07-23T07:31:42;101676.91;;;19.55;100.00
66164;BME280;52962;51.088;3.096;2022-07-23T07:34:10;101676.91;;;19.55;100.00
66164;BME280;52962;51.088;3.096;2022-07-23T07:36:38;101678.69;;;19.56;100.00
66164;BME280;52962;51.088;3.096;2022-07-23T07:39:06;101682.25;;;19.57;100.00
66164;BME280;52962;51.088;3.096;2022-07-23T07:41:37;101687.59;;;19.55;100.00
66164;BME280;52962;51.088;3.096;2022-07-23T07:44:06;101683.16;;;19.51;100.00
66164;BME280;52962;51.088;3.096;2022-07-23T07:46:34;101684.03;;;19.49;100.00
66164;BME280;52962;51.088;3.096;2022-07-23T07:49:01;101687.59;;;19.45;100.00
66164;BME280;52962;51.088;3.096;2022-07-23T07:51:29;101684.03;;;19.41;100.00
66164;BME280;52962;51.088;3.096;2022-07-23T07:53:57;101686.72;;;19.40;100.00
66164;BME280;52962;51.088;3.096;2022-07-23T07:56:26;101689.38;;;19.46;100.00
66164;BME280;52962;51.088;3.096;2022-07-23T07:58:55;101690.22;;;19.71;100.00
66164;BME280;52962;51.088;3.096;2022-07-23T08:01:25;101683.81;;;19.99;100.00
66164;BME280;52962;51.088;3.096;2022-07-23T08:03:54;101679.13;;;20.47;100.00
66164;BME280;52962;51.088;3.096;2022-07-23T08:06:22;101672.56;;;20.81;100.00
66164;BME280;52962;51.088;3.096;2022-07-23T08:08:50;101670.56;;;21.03;100.00
66164;BME280;52962;51.088;3.096;2022-07-23T08:11:18;101673.91;;;21.30;100.00
66164;BME280;52962;51.088;3.096;2022-07-23T08:13:45;101685.38;;;21.45;100.00
66164;BME280;52962;51.088;3.096;2022-07-23T08:16:13;101677.22;;;21.54;100.00
66164;BME280;52962;51.088;3.096;2022-07-23T08:18:42;101683.41;;;21.60;100.00
66164;BME280;52962;51.088;3.096;2022-07-23T08:21:10;101668.28;;;21.54;100.00
66164;BME280;52962;51.088;3.096;2022-07-23T08:23:38;101677.06;;;21.68;100.00
66164;BME280;52962;51.088;3.096;2022-07-23T08:26:06;101681.22;;;21.89;100.00
66164;BME280;52962;51.088;3.096;2022-07-23T08:28:34;101685.50;;;22.07;100.00
66164;BME280;52962;51.088;3.096;2022-07-23T08:31:02;101688.34;;;21.92;100.00
66164;BME280;52962;51.088;3.096;2022-07-23T08:33:32;101683.22;;;21.76;100.00
66164;BME280;52962;51.088;3.096;2022-07-23T08:36:02;101682.41;;;21.70;100.00
66164;BME280;52962;51.088;3.096;2022-07-23T08:38:31;101682.34;;;21.74;100.00
66164;BME280;52962;51.088;3.096;2022-07-23T08:41:00;101683.88;;;21.92;100.00
66164;BME280;52962;51.088;3.096;2022-07-23T08:43:31;101688.19;;;22.05;100.00
66164;BME280;52962;51.088;3.096;2022-07-23T08:46:01;101688.69;;;22.33;100.00
66164;BME280;52962;51.088;3.096;2022-07-23T08:48:31;101678.28;;;22.70;100.00
66164;BME280;52962;51.088;3.096;2022-07-23T08:51:02;101674.44;;;22.87;100.00
66164;BME280;52962;51.088;3.096;2022-07-23T08:53:32;101685.84;;;22.99;100.00
66164;BME280;52962;51.088;3.096;2022-07-23T08:56:03;101681.34;;;23.00;100.00
66164;BME280;52962;51.088;3.096;2022-07-23T08:58:34;101688.38;;;23.07;100.00
66164;BME280;52962;51.088;3.096;2022-07-23T09:01:03;101691.56;;;23.29;100.00
66164;BME280;52962;51.088;3.096;2022-07-23T09:03:32;101687.34;;;23.15;100.00
66164;BME280;52962;51.088;3.096;2022-07-23T09:06:03;101696.19;;;23.21;100.00
66164;BME280;52962;51.088;3.096;2022-07-23T09:08:35;101687.78;;;23.40;100.00
66164;BME280;52962;51.088;3.096;2022-07-23T09:11:04;101691.91;;;23.60;100.00
66164;BME280;52962;51.088;3.096;2022-07-23T09:13:38;101688.09;;;23.70;100.00
66164;BME280;52962;51.088;3.096;2022-07-23T09:16:09;101691.75;;;23.67;100.00
66164;BME280;52962;51.088;3.096;2022-07-23T09:18:42;101689.28;;;23.57;100.00
66164;BME280;52962;51.088;3.096;2022-07-23T09:21:18;101687.19;;;23.71;100.00
66164;BME280;52962;51.088;3.096;2022-07-23T09:23:48;101681.13;;;24.01;100.00
66164;BME280;52962;51.088;3.096;2022-07-23T09:26:24;101677.88;;;24.27;100.00
66164;BME280;52962;51.088;3.096;2022-07-23T09:28:55;101680.41;;;24.35;100.00
66164;BME280;52962;51.088;3.096;2022-07-23T09:31:24;101683.81;;;24.43;100.00
66164;BME280;52962;51.088;3.096;2022-07-23T09:34:06;101691.25;;;24.32;100.00
66164;BME280;52962;51.088;3.096;2022-07-23T09:36:36;101692.03;;;24.37;100.00
66164;BME280;52962;51.088;3.096;2022-07-23T09:39:04;101686.53;;;24.41;100.00
66164;BME280;52962;51.088;3.096;2022-07-23T09:41:37;101685.63;;;24.42;100.00
66164;BME280;52962;51.088;3.096;2022-07-23T09:44:10;101687.59;;;24.34;100.00
66164;BME280;52962;51.088;3.096;2022-07-23T09:46:39;101689.81;;;24.54;100.00
66164;BME280;52962;51.088;3.096;2022-07-23T09:49:18;101692.66;;;24.48;100.00
66164;BME280;52962;51.088;3.096;2022-07-23T09:51:51;101691.91;;;24.41;100.00
66164;BME280;52962;51.088;3.096;2022-07-23T09:54:28;101689.25;;;24.40;100.00
66164;BME280;52962;51.088;3.096;2022-07-23T09:56:59;101688.22;;;24.45;100.00
66164;BME280;52962;51.088;3.096;2022-07-23T09:59:30;101689.03;;;24.49;100.00
66164;BME280;52962;51.088;3.096;2022-07-23T10:02:00;101693.41;;;24.55;100.00
66164;BME280;52962;51.088;3.096;2022-07-23T10:04:29;101697.91;;;24.54;100.00
66164;BME280;52962;51.088;3.096;2022-07-23T10:06:59;101690.53;;;24.62;100.00
66164;BME280;52962;51.088;3.096;2022-07-23T10:09:29;101692.44;;;24.57;100.00
66164;BME280;52962;51.088;3.096;2022-07-23T10:11:59;101694.28;;;24.55;100.00
66164;BME280;52962;51.088;3.096;2022-07-23T10:14:35;101686.38;;;24.48;100.00
66164;BME280;52962;51.088;3.096;2022-07-23T10:17:02;101676.56;;;24.45;100.00
66164;BME280;52962;51.088;3.096;2022-07-23T10:19:31;101679.13;;;24.51;100.00
66164;BME280;52962;51.088;3.096;2022-07-23T10:22:02;101686.47;;;24.44;100.00
66164;BME280;52962;51.088;3.096;2022-07-23T10:24:46;101683.91;;;24.38;100.00
66164;BME280;52962;51.088;3.096;2022-07-23T10:30:11;101685.94;;;24.66;100.00
66164;BME280;52962;51.088;3.096;2022-07-23T10:32:50;101680.44;;;24.70;100.00
66164;BME280;52962;51.088;3.096;2022-07-23T10:35:26;101677.25;;;24.55;100.00
66164;BME280;52962;51.088;3.096;2022-07-23T10:38:10;101676.22;;;24.60;100.00
66164;BME280;52962;51.088;3.096;2022-07-23T10:40:53;101679.53;;;24.71;100.00
66164;BME280;52962;51.088;3.096;2022-07-23T10:43:22;101679.13;;;24.87;100.00
66164;BME280;52962;51.088;3.096;2022-07-23T10:45:50;101680.53;;;25.01;100.00
66164;BME280;52962;51.088;3.096;2022-07-23T10:48:20;101674.88;;;25.12;100.00
66164;BME280;52962;51.088;3.096;2022-07-23T10:51:06;101678.00;;;25.29;100.00
66164;BME280;52962;51.088;3.096;2022-07-23T10:53:58;101675.81;;;25.43;100.00
66164;BME280;52962;51.088;3.096;2022-07-23T10:56:49;101674.38;;;25.30;100.00
66164;BME280;52962;51.088;3.096;2022-07-23T10:59:18;101670.81;;;25.30;100.00
66164;BME280;52962;51.088;3.096;2022-07-23T11:01:47;101659.97;;;25.31;100.00
66164;BME280;52962;51.088;3.096;2022-07-23T11:04:15;101660.81;;;25.33;100.00
66164;BME280;52962;51.088;3.096;2022-07-23T11:07:06;101658.63;;;25.48;100.00
66164;BME280;52962;51.088;3.096;2022-07-23T11:09:41;101661.13;;;25.54;100.00
66164;BME280;52962;51.088;3.096;2022-07-23T11:12:33;101659.31;;;25.54;100.00
66164;BME280;52962;51.088;3.096;2022-07-23T11:15:05;101660.38;;;25.49;100.00
66164;BME280;52962;51.088;3.096;2022-07-23T11:17:35;101665.44;;;25.28;100.00
66164;BME280;52962;51.088;3.096;2022-07-23T11:20:16;101662.78;;;25.27;100.00
66164;BME280;52962;51.088;3.096;2022-07-23T11:22:50;101661.53;;;25.40;100.00
66164;BME280;52962;51.088;3.096;2022-07-23T11:25:30;101658.13;;;25.33;100.00
66164;BME280;52962;51.088;3.096;2022-07-23T11:28:09;101665.03;;;25.43;100.00
66164;BME280;52962;51.088;3.096;2022-07-23T11:30:39;101658.44;;;25.54;100.00
66164;BME280;52962;51.088;3.096;2022-07-23T11:33:19;101652.56;;;25.39;100.00
66164;BME280;52962;51.088;3.096;2022-07-23T11:35:49;101659.19;;;25.59;100.00
66164;BME280;52962;51.088;3.096;2022-07-23T11:38:19;101647.72;;;25.83;100.00
66164;BME280;52962;51.088;3.096;2022-07-23T11:40:51;101648.78;;;26.05;100.00
66164;BME280;52962;51.088;3.096;2022-07-23T11:43:19;101640.16;;;26.22;100.00
66164;BME280;52962;51.088;3.096;2022-07-23T11:45:49;101645.00;;;26.41;100.00
66164;BME280;52962;51.088;3.096;2022-07-23T11:48:19;101640.09;;;26.53;100.00
66164;BME280;52962;51.088;3.096;2022-07-23T11:50:49;101645.06;;;26.65;100.00
66164;BME280;52962;51.088;3.096;2022-07-23T11:53:24;101636.56;;;26.51;100.00
66164;BME280;52962;51.088;3.096;2022-07-23T11:56:03;101634.78;;;26.50;100.00
66164;BME280;52962;51.088;3.096;2022-07-23T11:58:31;101637.78;;;26.41;100.00
66164;BME280;52962;51.088;3.096;2022-07-23T12:00:59;101642.31;;;26.11;100.00
66164;BME280;52962;51.088;3.096;2022-07-23T12:03:27;101638.97;;;26.03;100.00
66164;BME280;52962;51.088;3.096;2022-07-23T12:05:56;101639.72;;;26.08;100.00
66164;BME280;52962;51.088;3.096;2022-07-23T12:08:25;101646.63;;;26.17;100.00
66164;BME280;52962;51.088;3.096;2022-07-23T12:10:55;101643.50;;;26.30;100.00
66164;BME280;52962;51.088;3.096;2022-07-23T12:13:23;101638.41;;;26.49;100.00
66164;BME280;52962;51.088;3.096;2022-07-23T12:15:52;101629.28;;;26.53;100.00
66164;BME280;52962;51.088;3.096;2022-07-23T12:18:22;101628.41;;;26.53;100.00
66164;BME280;52962;51.088;3.096;2022-07-23T12:20:52;101636.50;;;26.53;100.00
66164;BME280;52962;51.088;3.096;2022-07-23T12:23:22;101630.00;;;26.58;100.00
66164;BME280;52962;51.088;3.096;2022-07-23T12:25:53;101625.63;;;26.81;100.00
66164;BME280;52962;51.088;3.096;2022-07-23T12:28:28;101626.69;;;27.03;100.00
66164;BME280;52962;51.088;3.096;2022-07-23T12:30:57;101626.38;;;26.86;100.00
66164;BME280;52962;51.088;3.096;2022-07-23T12:33:28;101623.78;;;26.83;100.00
66164;BME280;52962;51.088;3.096;2022-07-23T12:35:58;101620.06;;;26.85;100.00
66164;BME280;52962;51.088;3.096;2022-07-23T12:38:27;101626.56;;;26.80;100.00
66164;BME280;52962;51.088;3.096;2022-07-23T12:40:56;101622.63;;;26.90;100.00
66164;BME280;52962;51.088;3.096;2022-07-23T12:43:28;101618.81;;;26.97;100.00
66164;BME280;52962;51.088;3.096;2022-07-23T12:46:00;101617.31;;;26.87;100.00
66164;BME280;52962;51.088;3.096;2022-07-23T12:48:30;101621.16;;;26.80;100.00
66164;BME280;52962;51.088;3.096;2022-07-23T12:51:00;101619.81;;;26.66;100.00
66164;BME280;52962;51.088;3.096;2022-07-23T12:53:29;101612.66;;;26.65;100.00
66164;BME280;52962;51.088;3.096;2022-07-23T12:56:04;101606.94;;;26.75;100.00